Time;durP1;ratioP1;P1;durP2;ratioP2;P2;SDS_P1;SDS_P2;PMS_P1;PMS_P2;Temp;Humidity;BMP_temperature;BMP_pressure;BME280_temperature;BME280_humidity;BME280_pressure;Samples;Min_cycle;Max_cycle;Signal;HPM_P1;HPM_P2
2022/03/03 05:02:05;;;;;;;34.88;19.02;;;-4.30;99.90;;;;;;5214758;23;96023;-76
2022/03/03 05:04:30;;;;;;;39.22;21.52;;;-4.20;99.90;;;;;;4982626;28;95075;-77
2022/03/03 05:06:56;;;;;;;40.42;21.33;;;-4.10;99.90;;;;;;4982438;28;95310;-77
2022/03/03 05:09:21;;;;;;;44.08;22.40;;;-4.10;99.90;;;;;;4982214;28;94349;-78
2022/03/03 05:11:47;;;;;;;42.05;21.92;;;-4.10;99.90;;;;;;4981856;28;94344;-77
2022/03/03 05:14:12;;;;;;;41.38;21.90;;;-4.10;99.90;;;;;;4980773;28;94436;-77
2022/03/03 05:16:38;;;;;;;37.42;20.70;;;-4.10;99.90;;;;;;4969121;23;94748;-77
2022/03/03 05:19:04;;;;;;;44.00;22.48;;;-4.10;99.90;;;;;;4939089;28;94967;-76
2022/03/03 05:21:31;;;;;;;42.58;22.38;;;-4.20;99.90;;;;;;4939399;28;98056;-77
2022/03/03 05:24:00;;;;;;;42.20;22.15;;;-4.20;99.90;;;;;;4957474;28;94287;-76
2022/03/03 05:26:26;;;;;;;39.00;21.08;;;-4.30;99.90;;;;;;4939059;28;94858;-77
2022/03/03 05:28:52;;;;;;;37.58;20.77;;;-4.40;99.90;;;;;;4939584;28;94414;-76
2022/03/03 05:31:17;;;;;;;36.22;20.67;;;-4.40;99.90;;;;;;4954864;28;99154;-76
2022/03/03 05:33:43;;;;;;;39.78;21.35;;;-4.40;99.90;;;;;;4938764;28;97956;-77
2022/03/03 05:36:10;;;;;;;42.63;22.40;;;-4.40;99.90;;;;;;4957601;28;94638;-74
2022/03/03 05:38:37;;;;;;;43.17;21.88;;;-4.30;99.90;;;;;;4938872;28;94583;-74
2022/03/03 05:41:04;;;;;;;39.47;21.95;;;-4.30;99.90;;;;;;4956170;28;94495;-74
2022/03/03 05:43:31;;;;;;;43.72;22.77;;;-4.30;99.90;;;;;;4956611;28;94828;-74
2022/03/03 05:45:57;;;;;;;40.67;22.10;;;-4.20;99.90;;;;;;4957043;28;94422;-76
2022/03/03 05:48:24;;;;;;;43.90;21.60;;;-4.20;99.90;;;;;;4956075;28;93592;-75
2022/03/03 05:50:49;;;;;;;42.33;22.20;;;-4.20;99.90;;;;;;4953096;28;95062;-76
2022/03/03 05:53:16;;;;;;;46.53;22.50;;;-4.30;99.90;;;;;;4956651;28;95388;-75
2022/03/03 05:55:44;;;;;;;45.40;22.92;;;-4.30;99.90;;;;;;4954611;28;95454;-75
2022/03/03 05:58:19;;;;;;;44.28;23.15;;;-4.30;99.90;;;;;;4938486;28;94514;-74
2022/03/03 06:00:47;;;;;;;46.50;23.55;;;-4.30;99.90;;;;;;4954817;28;97909;-74
2022/03/03 06:03:14;;;;;;;49.45;25.23;;;-4.10;99.90;;;;;;4956143;28;94897;-74
2022/03/03 06:05:44;;;;;;;52.95;26.25;;;-4.00;99.90;;;;;;4956563;28;94375;-76
2022/03/03 06:08:15;;;;;;;51.63;27.75;;;-4.00;99.90;;;;;;4947047;28;94680;-74
2022/03/03 06:10:46;;;;;;;48.72;25.60;;;-3.80;99.90;;;;;;4938190;28;96872;-75
2022/03/03 06:13:14;;;;;;;52.05;26.05;;;-3.70;99.90;;;;;;4957058;28;93731;-75
2022/03/03 06:15:42;;;;;;;51.45;26.38;;;-3.60;99.90;;;;;;4956077;28;94534;-75
2022/03/03 06:18:09;;;;;;;50.28;25.60;;;-3.50;99.90;;;;;;4956271;28;94922;-75
2022/03/03 06:20:36;;;;;;;50.05;26.13;;;-3.50;99.90;;;;;;4953348;28;96280;-75
2022/03/03 06:23:02;;;;;;;49.30;25.05;;;-3.30;99.90;;;;;;4955676;28;96011;-75
2022/03/03 06:25:28;;;;;;;50.08;25.20;;;-3.40;99.90;;;;;;4938046;28;94913;-77
2022/03/03 06:27:54;;;;;;;46.78;24.65;;;-3.30;99.90;;;;;;4955719;28;94813;-75
2022/03/03 06:30:19;;;;;;;47.58;25.02;;;-3.40;99.90;;;;;;4955378;28;95286;-74
2022/03/03 06:32:45;;;;;;;47.40;24.92;;;-3.30;99.90;;;;;;4955772;28;94587;-74
2022/03/03 06:35:10;;;;;;;51.33;25.50;;;-3.30;99.90;;;;;;4938119;28;94554;-75
2022/03/03 06:37:36;;;;;;;50.50;27.17;;;-3.20;99.90;;;;;;4962249;28;93602;-76
2022/03/03 06:40:02;;;;;;;56.00;26.67;;;-3.10;99.90;;;;;;4975230;28;95532;-75
2022/03/03 06:42:29;;;;;;;50.63;25.52;;;-3.00;99.90;;;;;;4969893;28;95081;-75
2022/03/03 06:44:54;;;;;;;52.47;26.88;;;-3.00;99.90;;;;;;4963204;28;95404;-75
2022/03/03 06:47:21;;;;;;;47.05;25.40;;;-3.00;99.90;;;;;;4965794;28;94562;-75
2022/03/03 06:49:47;;;;;;;45.88;23.13;;;-2.90;99.90;;;;;;4945333;28;97900;-75
2022/03/03 06:52:15;;;;;;;47.05;24.08;;;-2.90;99.90;;;;;;4968964;28;94866;-75
2022/03/03 06:54:51;;;;;;;42.00;23.88;;;-2.90;99.90;;;;;;4972320;28;94371;-75
2022/03/03 06:57:22;;;;;;;42.42;23.92;;;-2.90;99.90;;;;;;4974843;28;94483;-74
2022/03/03 06:59:50;;;;;;;48.17;25.48;;;-2.80;99.90;;;;;;4974738;28;94371;-75
2022/03/03 07:02:17;;;;;;;53.08;26.58;;;-2.70;99.90;;;;;;4975133;28;95344;-76
2022/03/03 07:04:47;;;;;;;42.17;24.45;;;-2.60;99.90;;;;;;4957176;28;94504;-76
2022/03/03 07:07:13;;;;;;;48.53;25.17;;;-2.50;99.90;;;;;;4974733;28;94525;-76
2022/03/03 07:09:41;;;;;;;44.70;24.23;;;-2.40;99.90;;;;;;4973908;28;96664;-75
2022/03/03 07:12:07;;;;;;;45.63;23.13;;;-2.30;99.90;;;;;;4974644;28;95716;-76
2022/03/03 07:14:33;;;;;;;41.75;23.52;;;-2.30;99.90;;;;;;4975168;28;94528;-76
2022/03/03 07:17:00;;;;;;;42.88;23.08;;;-2.20;99.90;;;;;;4973354;28;94579;-75
2022/03/03 07:19:26;;;;;;;41.63;23.70;;;-2.20;99.90;;;;;;4974924;28;95496;-75
2022/03/03 07:22:12;;;;;;;37.75;22.17;;;-2.10;99.90;;;;;;4974796;28;94486;-76
2022/03/03 07:24:44;;;;;;;40.72;22.42;;;-2.10;99.90;;;;;;4957056;28;94460;-76
2022/03/03 07:27:17;;;;;;;41.20;22.58;;;-2.00;99.90;;;;;;4962839;28;93887;-75
2022/03/03 07:29:47;;;;;;;46.28;24.70;;;-2.00;99.90;;;;;;4953092;28;97073;-76
2022/03/03 07:32:17;;;;;;;37.88;21.88;;;-1.80;99.90;;;;;;4953054;28;97972;-75
2022/03/03 07:34:48;;;;;;;41.60;23.35;;;-1.70;99.90;;;;;;4954440;28;95633;-75
2022/03/03 07:37:18;;;;;;;43.40;24.17;;;-1.70;99.90;;;;;;4954779;28;94967;-75
2022/03/03 07:39:45;;;;;;;39.92;23.08;;;-1.60;99.90;;;;;;4951984;28;97385;-74
2022/03/03 07:42:13;;;;;;;40.20;22.92;;;-1.50;99.90;;;;;;4963384;28;95411;-78
2022/03/03 07:44:39;;;;;;;40.25;22.88;;;-1.40;99.90;;;;;;4974259;28;94403;-75
2022/03/03 07:47:09;;;;;;;38.17;22.80;;;-1.30;99.90;;;;;;4973597;28;94503;-76
2022/03/03 07:49:34;;;;;;;39.00;22.15;;;-1.20;99.90;;;;;;4972869;28;95655;-76
2022/03/03 07:52:03;;;;;;;39.28;22.42;;;-1.10;99.90;;;;;;4973781;28;94721;-76
2022/03/03 07:54:29;;;;;;;39.63;22.48;;;-1.00;99.90;;;;;;4973758;28;94468;-76
2022/03/03 07:56:59;;;;;;;38.22;22.13;;;-0.80;99.90;;;;;;4973579;28;94760;-76
2022/03/03 07:59:33;;;;;;;35.78;20.90;;;-0.80;99.90;;;;;;4954459;28;99206;-77
2022/03/03 08:02:04;;;;;;;36.50;20.95;;;-0.60;99.90;;;;;;4974189;28;96470;-76
2022/03/03 08:04:33;;;;;;;34.17;20.65;;;-0.50;99.90;;;;;;4968494;28;94572;-76
2022/03/03 08:07:05;;;;;;;37.85;21.77;;;-0.40;99.90;;;;;;4958620;28;94599;-75
2022/03/03 08:09:32;;;;;;;34.42;20.40;;;-0.20;99.90;;;;;;4976064;28;94680;-75
2022/03/03 08:12:02;;;;;;;35.38;20.75;;;-0.20;99.90;;;;;;4962001;28;96891;-75
2022/03/03 08:14:29;;;;;;;37.40;20.58;;;-0.10;99.90;;;;;;4962287;28;94545;-75
2022/03/03 08:16:55;;;;;;;34.58;20.20;;;0.00;99.90;;;;;;4951918;28;93922;-76
2022/03/03 08:19:22;;;;;;;35.15;19.98;;;0.10;99.90;;;;;;4941082;28;95114;-79
2022/03/03 08:21:48;;;;;;;34.97;19.63;;;0.20;99.90;;;;;;4957347;28;95467;-75
2022/03/03 08:24:15;;;;;;;36.42;21.42;;;0.20;99.90;;;;;;4956315;28;95500;-77
2022/03/03 08:26:42;;;;;;;35.40;19.83;;;0.30;99.90;;;;;;4953666;28;94628;-76
2022/03/03 08:29:09;;;;;;;36.05;20.42;;;0.30;99.90;;;;;;4959993;28;94492;-76
2022/03/03 08:31:37;;;;;;;32.35;19.63;;;0.50;99.90;;;;;;4960344;28;94838;-76
2022/03/03 08:34:12;;;;;;;33.40;20.95;;;0.60;99.90;;;;;;4960656;28;94512;-77
2022/03/03 08:37:07;;;;;;;32.50;19.67;;;0.70;99.90;;;;;;4942296;28;94481;-78
2022/03/03 08:39:38;;;;;;;34.58;20.05;;;0.80;99.90;;;;;;4958142;28;95462;-77
2022/03/03 08:42:08;;;;;;;34.17;19.33;;;0.90;99.90;;;;;;4960761;28;95078;-76
2022/03/03 08:44:35;;;;;;;33.63;19.90;;;1.10;99.90;;;;;;4960181;28;94600;-76
2022/03/03 08:47:03;;;;;;;31.38;19.77;;;1.20;99.90;;;;;;4960814;28;94818;-78
2022/03/03 08:49:39;;;;;;;34.40;20.02;;;1.30;99.90;;;;;;4956728;28;95515;-79
2022/03/03 08:52:07;;;;;;;32.67;20.30;;;1.40;99.90;;;;;;4942520;28;98651;-79
2022/03/03 08:54:33;;;;;;;32.15;19.60;;;1.50;99.90;;;;;;4947622;28;94600;-78
2022/03/03 08:56:59;;;;;;;28.65;19.40;;;1.50;99.90;;;;;;4940158;28;94499;-77
2022/03/03 08:59:25;;;;;;;31.92;19.83;;;1.60;99.90;;;;;;4942447;28;96253;-77
2022/03/03 09:01:51;;;;;;;31.75;19.38;;;1.70;99.90;;;;;;4959878;28;95441;-77
2022/03/03 09:04:18;;;;;;;35.10;20.50;;;1.80;99.90;;;;;;4942335;28;94756;-78
2022/03/03 09:06:44;;;;;;;34.53;20.08;;;1.90;99.90;;;;;;4956265;28;93758;-77
2022/03/03 09:09:11;;;;;;;31.55;19.15;;;2.00;99.90;;;;;;4958898;28;95338;-77
2022/03/03 09:11:36;;;;;;;29.98;19.52;;;2.20;99.90;;;;;;4957509;28;95181;-78
2022/03/03 09:14:02;;;;;;;30.85;19.98;;;2.20;99.90;;;;;;4953980;28;95619;-78
2022/03/03 09:16:28;;;;;;;34.42;20.20;;;2.30;99.90;;;;;;4955641;28;94551;-78
2022/03/03 09:18:54;;;;;;;29.25;18.25;;;2.40;99.90;;;;;;4956176;28;95539;-77
2022/03/03 09:21:19;;;;;;;30.75;18.67;;;2.50;99.90;;;;;;4968253;28;94723;-78
2022/03/03 09:23:45;;;;;;;32.38;18.75;;;2.60;99.90;;;;;;4956518;28;94707;-78
2022/03/03 09:26:11;;;;;;;29.83;18.75;;;2.70;99.90;;;;;;4956311;28;94535;-78
2022/03/03 09:28:36;;;;;;;30.08;19.88;;;2.90;99.90;;;;;;4967720;28;95214;-78
2022/03/03 09:31:02;;;;;;;28.30;19.00;;;3.00;99.90;;;;;;4959304;28;94217;-78
2022/03/03 09:33:28;;;;;;;34.13;19.33;;;3.20;99.90;;;;;;4956603;28;94442;-77
2022/03/03 09:35:54;;;;;;;27.08;17.77;;;3.30;99.90;;;;;;4955736;28;94618;-78
2022/03/03 09:38:20;;;;;;;30.25;19.15;;;3.40;99.90;;;;;;4953824;28;99458;-77
2022/03/03 09:40:48;;;;;;;30.45;17.85;;;3.50;99.90;;;;;;4955694;28;95941;-78
2022/03/03 09:43:14;;;;;;;29.73;18.30;;;3.60;99.90;;;;;;4956411;28;94505;-77
2022/03/03 09:45:39;;;;;;;30.70;18.27;;;3.70;99.90;;;;;;4946386;28;94618;-78
2022/03/03 09:48:07;;;;;;;27.48;18.48;;;3.80;99.90;;;;;;4936583;28;94477;-79
2022/03/03 09:50:35;;;;;;;30.85;18.50;;;4.00;99.90;;;;;;4935757;28;94858;-78
2022/03/03 09:53:09;;;;;;;28.08;18.25;;;4.10;99.90;;;;;;4936616;28;94900;-78
2022/03/03 09:55:36;;;;;;;30.08;18.52;;;4.20;99.90;;;;;;4919301;28;94447;-78
2022/03/03 09:58:02;;;;;;;33.65;18.38;;;4.40;99.90;;;;;;4936271;28;95703;-78
2022/03/03 10:00:33;;;;;;;31.90;19.25;;;4.50;99.90;;;;;;4922211;28;97963;-78
2022/03/03 10:03:10;;;;;;;32.22;18.67;;;4.60;99.90;;;;;;4962311;28;95618;-77
2022/03/03 10:05:40;;;;;;;27.55;17.73;;;4.80;99.90;;;;;;4936270;28;94469;-78
2022/03/03 10:08:08;;;;;;;26.40;18.40;;;4.90;99.90;;;;;;4934494;28;96749;-78
2022/03/03 10:10:36;;;;;;;27.85;17.83;;;5.00;99.90;;;;;;4935464;28;98007;-78
2022/03/03 10:13:02;;;;;;;28.67;18.75;;;5.10;99.90;;;;;;4918903;28;94460;-78
2022/03/03 10:15:29;;;;;;;26.85;18.15;;;5.10;99.90;;;;;;4933772;28;94544;-78
2022/03/03 10:18:00;;;;;;;30.00;18.92;;;5.20;99.90;;;;;;4950545;28;95394;-79
2022/03/03 10:20:26;;;;;;;30.25;18.60;;;5.40;99.90;;;;;;4963596;28;94906;-78
2022/03/03 10:22:57;;;;;;;31.33;18.85;;;5.60;99.90;;;;;;4964057;28;94402;-79
2022/03/03 10:25:34;;;;;;;31.15;17.38;;;5.70;99.90;;;;;;4961195;28;94478;-78
2022/03/03 10:28:13;;;;;;;30.92;18.38;;;5.90;99.90;;;;;;4935409;28;98304;-78
2022/03/03 10:30:48;;;;;;;31.10;18.60;;;6.00;99.90;;;;;;4937908;28;99320;-78
2022/03/03 10:33:15;;;;;;;31.10;19.02;;;6.20;99.90;;;;;;4964085;28;94550;-78
2022/03/03 10:35:41;;;;;;;30.40;18.67;;;6.10;99.90;;;;;;4946774;28;94680;-78
2022/03/03 10:38:07;;;;;;;30.67;18.05;;;6.20;99.90;;;;;;4964647;28;95301;-78
2022/03/03 10:40:36;;;;;;;29.25;17.55;;;6.10;99.90;;;;;;4965832;28;94695;-78
2022/03/03 10:43:01;;;;;;;29.52;18.10;;;6.20;99.90;;;;;;4965145;28;95394;-78
2022/03/03 10:45:27;;;;;;;30.08;18.13;;;6.40;99.90;;;;;;4952399;28;93874;-79
2022/03/03 10:48:03;;;;;;;27.50;17.25;;;6.60;99.90;;;;;;4931295;28;96703;-78
2022/03/03 10:50:49;;;;;;;27.15;18.13;;;6.60;99.90;;;;;;4931660;28;97721;-77
2022/03/03 10:53:25;;;;;;;28.88;16.85;;;6.70;99.40;;;;;;4948584;28;95382;-78
2022/03/03 10:56:00;;;;;;;27.63;17.80;;;6.80;98.10;;;;;;4946863;28;94527;-78
2022/03/03 10:58:43;;;;;;;24.40;16.88;;;6.80;98.30;;;;;;4947538;28;94705;-79
2022/03/03 11:01:09;;;;;;;26.92;17.17;;;6.90;98.30;;;;;;4948454;28;94505;-78
2022/03/03 11:03:36;;;;;;;25.25;16.25;;;7.00;97.30;;;;;;4928941;28;94548;-78
2022/03/03 11:06:03;;;;;;;23.38;15.95;;;7.10;97.20;;;;;;4944271;28;94479;-78
2022/03/03 11:08:30;;;;;;;24.38;15.45;;;7.20;97.10;;;;;;4945766;28;95142;-78
2022/03/03 11:10:56;;;;;;;24.80;16.33;;;7.30;96.10;;;;;;4932606;28;97993;-78
2022/03/03 11:13:22;;;;;;;24.55;16.08;;;7.40;94.90;;;;;;4960223;28;94448;-79
2022/03/03 11:15:49;;;;;;;21.42;15.68;;;7.50;94.30;;;;;;4972850;22;94690;-77
2022/03/03 11:18:18;;;;;;;26.88;16.52;;;7.70;94.10;;;;;;4961276;28;96371;-76
2022/03/03 11:20:45;;;;;;;23.58;15.93;;;7.90;93.90;;;;;;4955940;28;98537;-76
2022/03/03 11:23:11;;;;;;;23.58;15.98;;;7.90;93.00;;;;;;4974299;28;94956;-74
2022/03/03 11:25:38;;;;;;;23.08;15.27;;;7.90;92.60;;;;;;4966361;28;94439;-75
2022/03/03 11:28:09;;;;;;;23.10;14.90;;;8.00;91.20;;;;;;4935703;28;94340;-75
2022/03/03 11:30:36;;;;;;;22.85;14.73;;;8.10;90.50;;;;;;4916884;28;97050;-75
2022/03/03 11:33:24;;;;;;;23.27;15.00;;;8.10;90.80;;;;;;4935923;28;94587;-75
2022/03/03 11:35:56;;;;;;;21.45;15.10;;;8.30;91.00;;;;;;4933554;28;93961;-75
2022/03/03 11:38:24;;;;;;;22.52;15.63;;;8.40;87.70;;;;;;4917222;28;97136;-75
2022/03/03 11:40:58;;;;;;;23.90;15.68;;;8.50;90.10;;;;;;4935276;28;96151;-75
2022/03/03 11:43:28;;;;;;;21.80;15.25;;;8.50;91.70;;;;;;4935064;28;95401;-75
2022/03/03 11:45:58;;;;;;;26.02;16.23;;;8.70;90.00;;;;;;4917873;28;94596;-75
2022/03/03 11:48:38;;;;;;;26.65;15.43;;;8.60;88.00;;;;;;4935516;28;94408;-77
2022/03/03 11:51:32;;;;;;;22.10;15.50;;;8.60;87.60;;;;;;4917902;28;97840;-76
2022/03/03 11:54:09;;;;;;;22.83;15.23;;;8.70;86.00;;;;;;4929653;28;94608;-78
2022/03/03 11:56:54;;;;;;;26.45;16.27;;;8.70;85.70;;;;;;4934160;28;94715;-77
2022/03/03 11:59:19;;;;;;;25.00;17.50;;;8.80;88.00;;;;;;4916047;28;95668;-78
2022/03/03 12:01:55;;;;;;;42.00;30.42;;;9.00;91.20;;;;;;4898900;28;98040;-78
2022/03/03 12:04:25;;;;;;;27.52;19.38;;;9.10;91.20;;;;;;4916063;28;94422;-77
2022/03/03 12:06:53;;;;;;;45.25;29.70;;;9.20;90.00;;;;;;4915564;28;94626;-76
2022/03/03 12:09:24;;;;;;;35.70;22.27;;;9.30;90.70;;;;;;4915343;28;96107;-77
2022/03/03 12:12:06;;;;;;;25.27;17.45;;;9.40;89.80;;;;;;4897735;28;98849;-76
2022/03/03 12:14:49;;;;;;;25.50;16.13;;;9.70;88.70;;;;;;4916486;28;94693;-77
2022/03/03 12:17:41;;;;;;;25.77;16.02;;;9.60;85.30;;;;;;4914197;28;94484;-79
2022/03/03 12:20:30;;;;;;;25.00;15.55;;;9.70;82.30;;;;;;4916035;28;94578;-77
2022/03/03 12:23:09;;;;;;;27.98;17.63;;;9.80;79.90;;;;;;4898604;28;95879;-77
2022/03/03 12:25:50;;;;;;;26.77;16.13;;;9.90;84.70;;;;;;4915095;28;94447;-77
2022/03/03 12:28:35;;;;;;;21.98;15.23;;;10.00;82.70;;;;;;4898950;28;93877;-76
2022/03/03 12:31:16;;;;;;;20.25;14.88;;;10.00;77.50;;;;;;4915869;28;94437;-76
2022/03/03 12:33:55;;;;;;;21.88;14.50;;;10.20;76.70;;;;;;4921462;28;94563;-78
2022/03/03 12:36:20;;;;;;;20.60;14.45;;;10.40;78.80;;;;;;4934854;28;95364;-77
2022/03/03 12:38:46;;;;;;;21.58;14.70;;;10.50;75.70;;;;;;4935652;28;94507;-77
2022/03/03 12:41:11;;;;;;;26.10;14.98;;;10.50;75.20;;;;;;4935697;28;94498;-77
2022/03/03 12:43:38;;;;;;;20.30;14.60;;;10.80;74.90;;;;;;4951507;28;94825;-78
2022/03/03 12:46:04;;;;;;;20.48;14.95;;;10.90;74.20;;;;;;4958905;28;94047;-78
2022/03/03 12:48:32;;;;;;;20.80;14.63;;;11.00;72.90;;;;;;4923458;28;94422;-76
2022/03/03 12:51:05;;;;;;;25.38;14.63;;;11.00;75.90;;;;;;4938031;28;94603;-77
2022/03/03 12:53:43;;;;;;;23.05;15.13;;;11.20;72.80;;;;;;4939182;28;93715;-76
2022/03/03 12:56:22;;;;;;;19.35;14.27;;;11.10;72.50;;;;;;4919428;28;94452;-84
2022/03/03 12:58:48;;;;;;;20.23;14.60;;;11.10;71.30;;;;;;4932248;28;94318;-80
2022/03/03 13:01:22;;;;;;;19.27;13.73;;;11.30;68.80;;;;;;4939581;28;98136;-78
2022/03/03 13:03:48;;;;;;;18.83;14.13;;;11.40;70.20;;;;;;4931724;28;98945;-79
2022/03/03 13:06:13;;;;;;;21.10;14.43;;;11.40;70.30;;;;;;4939683;28;94574;-78
2022/03/03 13:08:39;;;;;;;20.95;14.00;;;11.20;70.20;;;;;;4940049;28;94853;-75
2022/03/03 13:11:08;;;;;;;19.73;13.43;;;11.30;71.20;;;;;;4938630;28;94560;-77
2022/03/03 13:14:05;;;;;;;19.95;14.60;;;11.10;70.20;;;;;;4921748;28;97591;-77
2022/03/03 13:16:34;;;;;;;21.85;14.15;;;11.10;70.00;;;;;;4921992;28;94502;-77
2022/03/03 13:19:03;;;;;;;20.33;14.90;;;11.40;71.70;;;;;;4935912;28;93970;-77
2022/03/03 13:21:33;;;;;;;20.92;14.57;;;11.50;71.50;;;;;;4926290;28;96612;-77
2022/03/03 13:24:05;;;;;;;20.58;14.68;;;11.70;73.20;;;;;;4922444;28;96535;-76
2022/03/03 13:26:49;;;;;;;21.88;14.02;;;11.70;71.40;;;;;;4936118;28;95371;-77
2022/03/03 13:29:16;;;;;;;20.98;13.43;;;11.70;73.60;;;;;;4936101;28;94482;-76
2022/03/03 13:31:43;;;;;;;17.77;11.18;;;11.60;69.90;;;;;;4936845;28;95340;-77
2022/03/03 13:34:21;;;;;;;16.33;11.93;;;11.50;61.50;;;;;;4937084;28;94351;-76
2022/03/03 13:36:47;;;;;;;20.00;14.05;;;11.50;61.90;;;;;;4937397;28;94440;-77
2022/03/03 13:39:31;;;;;;;17.27;12.63;;;11.50;65.90;;;;;;4936650;28;94513;-77
2022/03/03 13:41:59;;;;;;;19.35;13.05;;;11.60;68.60;;;;;;4936901;28;95110;-76
2022/03/03 13:44:25;;;;;;;19.98;14.00;;;11.40;67.40;;;;;;4937473;28;94513;-77
2022/03/03 13:47:00;;;;;;;19.20;13.23;;;11.40;69.90;;;;;;4919201;28;94396;-77
2022/03/03 13:49:31;;;;;;;18.85;13.65;;;11.30;69.80;;;;;;4936558;28;94434;-76
2022/03/03 13:52:16;;;;;;;21.65;14.30;;;11.20;71.10;;;;;;4921080;28;99536;-79
2022/03/03 13:54:50;;;;;;;20.90;13.55;;;11.30;69.90;;;;;;4936280;28;95698;-77
2022/03/03 13:57:34;;;;;;;17.67;12.55;;;11.20;69.90;;;;;;4936663;28;94503;-77
2022/03/03 14:00:04;;;;;;;18.30;12.80;;;11.10;71.20;;;;;;4934774;28;94435;-78
2022/03/03 14:02:30;;;;;;;16.85;13.07;;;10.90;70.30;;;;;;4934041;28;94655;-78
2022/03/03 14:05:01;;;;;;;18.88;12.93;;;11.00;71.00;;;;;;4935785;28;95877;-77
2022/03/03 14:07:32;;;;;;;18.42;12.80;;;11.10;71.20;;;;;;4918893;28;94434;-77
2022/03/03 14:09:59;;;;;;;16.27;12.45;;;11.10;69.90;;;;;;4936952;28;93836;-78
2022/03/03 14:12:24;;;;;;;17.48;12.88;;;11.20;69.70;;;;;;4922849;28;97069;-77
2022/03/03 14:14:50;;;;;;;18.38;12.52;;;11.20;68.70;;;;;;4939760;28;96458;-77
2022/03/03 14:17:15;;;;;;;19.45;12.82;;;11.20;68.00;;;;;;4936516;28;95388;-78
2022/03/03 14:19:43;;;;;;;17.55;11.88;;;11.20;68.50;;;;;;4936817;28;94724;-77
2022/03/03 14:22:09;;;;;;;19.08;13.20;;;11.20;70.30;;;;;;4935875;28;94844;-76
2022/03/03 14:24:36;;;;;;;18.75;12.98;;;11.30;69.00;;;;;;4936782;28;94456;-75
2022/03/03 14:27:03;;;;;;;17.52;13.02;;;11.10;69.90;;;;;;4936745;28;94435;-76
2022/03/03 14:29:28;;;;;;;18.23;12.95;;;11.00;69.60;;;;;;4936451;28;94399;-78
2022/03/03 14:31:55;;;;;;;19.08;12.73;;;11.10;70.50;;;;;;4918773;28;96808;-77
2022/03/03 14:34:20;;;;;;;19.20;12.85;;;11.20;70.60;;;;;;4937128;28;95001;-77
2022/03/03 14:36:46;;;;;;;16.67;12.10;;;11.10;67.90;;;;;;4938118;28;94461;-79
2022/03/03 14:39:12;;;;;;;17.50;12.07;;;11.20;68.50;;;;;;4919031;28;94593;-77
2022/03/03 14:41:39;;;;;;;16.35;12.15;;;11.30;68.10;;;;;;4935729;28;96148;-78
2022/03/03 14:44:05;;;;;;;15.95;11.77;;;11.30;66.70;;;;;;4936594;28;94847;-76
2022/03/03 14:46:33;;;;;;;16.73;11.88;;;11.30;66.70;;;;;;4936522;28;94374;-78
2022/03/03 14:49:00;;;;;;;15.25;11.75;;;11.40;66.60;;;;;;4918331;28;94439;-78
2022/03/03 14:51:27;;;;;;;18.55;10.73;;;11.40;66.00;;;;;;4923970;28;94605;-78
2022/03/03 14:53:53;;;;;;;13.73;10.50;;;11.40;64.50;;;;;;4938741;28;94550;-78
2022/03/03 14:56:19;;;;;;;13.77;10.23;;;11.40;63.60;;;;;;4937795;28;94456;-78
2022/03/03 14:58:45;;;;;;;15.70;11.18;;;11.50;63.20;;;;;;4938218;28;93802;-77
2022/03/03 15:01:11;;;;;;;14.80;10.15;;;11.40;62.50;;;;;;4936208;28;94492;-77
2022/03/03 15:03:37;;;;;;;12.82;9.05;;;11.30;66.60;;;;;;4935982;28;94421;-77
2022/03/03 15:06:03;;;;;;;15.60;10.38;;;11.20;64.40;;;;;;4934991;28;95635;-77
2022/03/03 15:08:30;;;;;;;13.52;10.02;;;11.20;60.30;;;;;;4935880;28;94479;-76
2022/03/03 15:10:56;;;;;;;13.60;9.43;;;11.60;60.30;;;;;;4922538;28;97855;-78
2022/03/03 15:13:24;;;;;;;16.17;9.88;;;12.80;58.50;;;;;;4923328;28;97969;-79
2022/03/03 15:15:49;;;;;;;12.35;9.45;;;14.70;55.40;;;;;;4936242;28;94441;-78
2022/03/03 15:18:15;;;;;;;15.98;9.98;;;16.00;51.90;;;;;;4938756;28;94472;-77
2022/03/03 15:20:41;;;;;;;11.38;9.35;;;16.50;50.40;;;;;;4940413;28;96202;-78
2022/03/03 15:23:06;;;;;;;11.85;9.68;;;16.60;49.60;;;;;;4923179;28;97469;-79
2022/03/03 15:25:32;;;;;;;12.27;9.52;;;16.00;48.60;;;;;;4944478;28;94789;-78
2022/03/03 15:27:58;;;;;;;12.60;9.75;;;15.50;49.60;;;;;;4937385;28;94631;-78
2022/03/03 15:30:23;;;;;;;11.65;9.40;;;15.00;50.50;;;;;;4935385;28;95905;-76
2022/03/03 15:32:49;;;;;;;11.40;8.88;;;15.80;49.40;;;;;;4938304;28;94568;-79
2022/03/03 15:37:59;;;;;;;9.98;8.85;;;18.20;45.20;;;;;;4941304;28;95184;-79
2022/03/03 15:40:24;;;;;;;11.70;8.60;;;18.90;41.40;;;;;;4941256;28;98034;-80
2022/03/03 15:42:50;;;;;;;9.45;8.40;;;18.50;45.40;;;;;;4936099;28;95302;-79
2022/03/03 15:45:16;;;;;;;9.75;8.70;;;18.30;41.60;;;;;;4937614;28;94488;-80
2022/03/03 15:47:41;;;;;;;10.85;8.15;;;18.80;41.30;;;;;;4937771;28;93864;-79
2022/03/03 15:50:08;;;;;;;9.50;7.93;;;18.60;41.30;;;;;;4936050;28;95089;-76
2022/03/03 15:52:34;;;;;;;10.95;8.40;;;18.60;39.90;;;;;;4935682;28;94508;-78
2022/03/03 15:54:59;;;;;;;10.85;8.30;;;18.50;41.30;;;;;;4935036;28;95448;-78
2022/03/03 15:57:25;;;;;;;9.32;7.82;;;18.80;40.20;;;;;;4935533;28;94440;-77
2022/03/03 15:59:51;;;;;;;11.05;8.60;;;18.10;40.90;;;;;;4938519;28;96039;-77
2022/03/03 16:02:17;;;;;;;9.90;8.05;;;17.40;40.80;;;;;;4938043;28;96904;-79
2022/03/03 16:04:42;;;;;;;9.35;7.38;;;16.70;42.40;;;;;;4950337;28;94291;-76
2022/03/03 16:07:09;;;;;;;10.48;7.63;;;15.80;42.10;;;;;;4936597;28;94504;-76
2022/03/03 16:09:37;;;;;;;11.02;7.15;;;15.30;42.70;;;;;;4936123;28;94338;-78
2022/03/03 16:12:05;;;;;;;11.23;7.80;;;14.20;43.60;;;;;;4918423;28;96614;-79
2022/03/03 16:14:31;;;;;;;9.40;7.75;;;13.20;45.80;;;;;;4924349;28;94427;-77
2022/03/03 16:16:59;;;;;;;9.57;7.30;;;12.40;48.50;;;;;;4938424;28;94102;-77
2022/03/03 16:19:25;;;;;;;8.43;6.90;;;12.30;48.90;;;;;;4921394;28;98402;-77
2022/03/03 16:21:51;;;;;;;9.93;7.25;;;12.80;48.00;;;;;;4918170;28;98595;-77
2022/03/03 16:24:17;;;;;;;10.75;7.65;;;12.70;49.00;;;;;;4938273;28;94740;-77
2022/03/03 16:26:43;;;;;;;9.60;7.32;;;13.00;48.30;;;;;;4939381;28;94484;-78
2022/03/03 16:29:13;;;;;;;11.55;7.60;;;13.40;48.10;;;;;;4939121;28;95505;-77
2022/03/03 16:32:02;;;;;;;12.18;7.05;;;13.60;46.60;;;;;;4918272;28;96839;-76
2022/03/03 16:34:29;;;;;;;9.13;6.63;;;12.90;46.90;;;;;;4920448;28;94754;-76
2022/03/03 16:36:56;;;;;;;10.63;7.00;;;12.20;46.80;;;;;;4920144;28;94008;-78
2022/03/03 16:39:22;;;;;;;10.65;7.75;;;11.20;48.30;;;;;;4919487;28;94370;-76
2022/03/03 16:41:48;;;;;;;9.40;7.13;;;10.30;50.10;;;;;;4924088;28;94780;-76
2022/03/03 16:44:14;;;;;;;10.52;7.25;;;9.50;51.50;;;;;;4939000;28;95311;-77
2022/03/03 16:46:40;;;;;;;11.25;7.22;;;8.90;53.70;;;;;;4939214;28;94681;-76
2022/03/03 16:49:06;;;;;;;10.15;7.63;;;8.40;55.60;;;;;;4938812;28;95673;-77
2022/03/03 16:51:36;;;;;;;13.90;7.47;;;8.00;56.50;;;;;;4921128;28;97661;-77
2022/03/03 16:54:05;;;;;;;11.40;7.38;;;7.60;58.50;;;;;;4922127;28;94402;-79
2022/03/03 16:56:31;;;;;;;10.52;7.40;;;7.30;60.50;;;;;;4938624;28;94507;-78
2022/03/03 16:58:57;;;;;;;11.15;7.70;;;6.90;62.20;;;;;;4939016;28;95032;-78
2022/03/03 17:01:23;;;;;;;11.18;7.75;;;6.60;64.30;;;;;;4939421;28;93931;-77
2022/03/03 17:03:48;;;;;;;13.43;8.05;;;6.30;65.00;;;;;;4939330;28;94465;-78
2022/03/03 17:06:14;;;;;;;13.15;8.25;;;6.10;69.50;;;;;;4921171;28;94553;-79
2022/03/03 17:08:39;;;;;;;14.35;8.43;;;5.80;68.20;;;;;;4938134;28;95530;-76
2022/03/03 17:11:05;;;;;;;16.77;9.25;;;5.60;71.00;;;;;;4937928;28;95822;-77
2022/03/03 17:13:31;;;;;;;14.90;9.13;;;5.50;71.00;;;;;;4935756;28;94572;-76
2022/03/03 17:15:57;;;;;;;16.67;10.10;;;5.30;71.40;;;;;;4921264;28;94602;-79
2022/03/03 17:18:22;;;;;;;15.65;10.38;;;5.20;72.20;;;;;;4938668;28;95627;-80
2022/03/03 17:20:48;;;;;;;17.63;10.65;;;5.10;73.20;;;;;;4939273;28;95016;-77
2022/03/03 17:23:14;;;;;;;20.13;12.27;;;5.00;74.70;;;;;;4936543;28;94510;-77
2022/03/03 17:25:41;;;;;;;19.63;11.65;;;4.90;75.50;;;;;;4938607;28;93898;-77
2022/03/03 17:28:07;;;;;;;18.67;10.85;;;4.90;76.10;;;;;;4920475;28;98196;-78
2022/03/03 17:30:33;;;;;;;20.50;11.73;;;4.80;76.80;;;;;;4934957;28;95395;-77
2022/03/03 17:32:59;;;;;;;18.48;11.00;;;5.00;75.00;;;;;;4927726;28;96307;-76
2022/03/03 17:35:25;;;;;;;17.33;10.95;;;4.90;77.50;;;;;;4935988;28;94556;-76
2022/03/03 17:37:53;;;;;;;18.58;10.43;;;4.90;76.30;;;;;;4936943;28;95494;-76
2022/03/03 17:40:23;;;;;;;18.10;11.00;;;4.90;76.70;;;;;;4936654;28;94853;-75
2022/03/03 17:42:49;;;;;;;19.60;12.43;;;5.00;76.30;;;;;;4919499;28;94509;-77
2022/03/03 17:45:17;;;;;;;36.13;21.92;;;4.80;77.80;;;;;;4936708;28;94573;-75